sensor_id;sensor_type;location;lat;lon;timestamp;pressure;altitude;pressure_sealevel;temperature;humidity
71768;BME280;59604;52.138;5.446;2023-02-02T00:02:11;102251.63;;;6.82;100.00
71768;BME280;59604;52.138;5.446;2023-02-02T00:04:37;102257.81;;;6.81;100.00
71768;BME280;59604;52.138;5.446;2023-02-02T00:07:04;102256.97;;;6.81;100.00
71768;BME280;59604;52.138;5.446;2023-02-02T00:09:31;102259.59;;;6.81;100.00
71768;BME280;59604;52.138;5.446;2023-02-02T00:11:59;102257.94;;;6.80;100.00
71768;BME280;59604;52.138;5.446;2023-02-02T00:14:26;102272.13;;;6.77;100.00
71768;BME280;59604;52.138;5.446;2023-02-02T00:16:54;102257.25;;;6.77;100.00
71768;BME280;59604;52.138;5.446;2023-02-02T00:19:30;102255.59;;;6.76;100.00
71768;BME280;59604;52.138;5.446;2023-02-02T00:21:57;102254.19;;;6.72;100.00
71768;BME280;59604;52.138;5.446;2023-02-02T00:24:24;102266.59;;;6.70;100.00
71768;BME280;59604;52.138;5.446;2023-02-02T00:26:54;102261.47;;;6.69;100.00
71768;BME280;59604;52.138;5.446;2023-02-02T00:29:27;102261.03;;;6.64;100.00
71768;BME280;59604;52.138;5.446;2023-02-02T00:31:55;102266.38;;;6.62;100.00
71768;BME280;59604;52.138;5.446;2023-02-02T00:34:22;102260.31;;;6.62;100.00
71768;BME280;59604;52.138;5.446;2023-02-02T00:36:49;102254.25;;;6.61;100.00
71768;BME280;59604;52.138;5.446;2023-02-02T00:39:19;102262.91;;;6.62;100.00
71768;BME280;59604;52.138;5.446;2023-02-02T00:41:46;102263.88;;;6.61;100.00
71768;BME280;59604;52.138;5.446;2023-02-02T00:44:13;102256.84;;;6.61;100.00
71768;BME280;59604;52.138;5.446;2023-02-02T00:46:58;102257.69;;;6.62;100.00
71768;BME280;59604;52.138;5.446;2023-02-02T00:49:25;102259.47;;;6.61;100.00
71768;BME280;59604;52.138;5.446;2023-02-02T00:51:51;102262.81;;;6.63;100.00
71768;BME280;59604;52.138;5.446;2023-02-02T00:54:18;102254.09;;;6.63;100.00
71768;BME280;59604;52.138;5.446;2023-02-02T00:56:44;102259.22;;;6.64;100.00
71768;BME280;59604;52.138;5.446;2023-02-02T00:59:11;102255.66;;;6.65;100.00
71768;BME280;59604;52.138;5.446;2023-02-02T01:01:38;102263.50;;;6.65;100.00
71768;BME280;59604;52.138;5.446;2023-02-02T01:04:04;102269.56;;;6.66;100.00
71768;BME280;59604;52.138;5.446;2023-02-02T01:06:31;102267.91;;;6.65;100.00
71768;BME280;59604;52.138;5.446;2023-02-02T01:08:57;102267.78;;;6.66;100.00
71768;BME280;59604;52.138;5.446;2023-02-02T01:11:24;102267.78;;;6.66;100.00
71768;BME280;59604;52.138;5.446;2023-02-02T01:13:51;102267.09;;;6.64;100.00
71768;BME280;59604;52.138;5.446;2023-02-02T01:16:18;102268.06;;;6.63;100.00
71768;BME280;59604;52.138;5.446;2023-02-02T01:18:48;102273.28;;;6.63;100.00
71768;BME280;59604;52.138;5.446;2023-02-02T01:21:15;102274.22;;;6.62;100.00
71768;BME280;59604;52.138;5.446;2023-02-02T01:23:41;102275.19;;;6.61;100.00
71768;BME280;59604;52.138;5.446;2023-02-02T01:26:09;102278.88;;;6.59;100.00
71768;BME280;59604;52.138;5.446;2023-02-02T01:28:37;102286.72;;;6.59;100.00
71768;BME280;59604;52.138;5.446;2023-02-02T01:31:07;102279.25;;;6.54;100.00
71768;BME280;59604;52.138;5.446;2023-02-02T01:33:34;102281.19;;;6.52;100.00
71768;BME280;59604;52.138;5.446;2023-02-02T01:36:04;102283.09;;;6.50;100.00
71768;BME280;59604;52.138;5.446;2023-02-02T01:38:31;102285.84;;;6.48;100.00
71768;BME280;59604;52.138;5.446;2023-02-02T01:40:58;102280.63;;;6.48;100.00
71768;BME280;59604;52.138;5.446;2023-02-02T01:45:57;102290.34;;;6.46;100.00
71768;BME280;59604;52.138;5.446;2023-02-02T01:48:27;102293.94;;;6.45;100.00
71768;BME280;59604;52.138;5.446;2023-02-02T01:50:59;102292.28;;;6.44;100.00
71768;BME280;59604;52.138;5.446;2023-02-02T01:53:27;102304.53;;;6.44;100.00
71768;BME280;59604;52.138;5.446;2023-02-02T01:55:55;102287.41;;;6.40;100.00
71768;BME280;59604;52.138;5.446;2023-02-02T01:58:25;102292.63;;;6.40;100.00
71768;BME280;59604;52.138;5.446;2023-02-02T02:00:53;102290.03;;;6.40;100.00
71768;BME280;59604;52.138;5.446;2023-02-02T02:03:23;102287.41;;;6.40;100.00
71768;BME280;59604;52.138;5.446;2023-02-02T02:05:57;102291.94;;;6.38;100.00
71768;BME280;59604;52.138;5.446;2023-02-02T02:08:38;102294.56;;;6.38;100.00
71768;BME280;59604;52.138;5.446;2023-02-02T02:11:07;102293.75;;;6.37;100.00
71768;BME280;59604;52.138;5.446;2023-02-02T02:13:36;102295.50;;;6.37;100.00
71768;BME280;59604;52.138;5.446;2023-02-02T02:34:06;102269.47;;;6.35;100.00
71768;BME280;59604;52.138;5.446;2023-02-02T02:36:47;102269.59;;;6.34;100.00
71768;BME280;59604;52.138;5.446;2023-02-02T02:39:38;102264.38;;;6.34;100.00
71768;BME280;59604;52.138;5.446;2023-02-02T02:42:17;102262.59;;;6.34;100.00
71768;BME280;59604;52.138;5.446;2023-02-02T02:44:47;102260.78;;;6.35;100.00
71768;BME280;59604;52.138;5.446;2023-02-02T02:47:16;102255.81;;;6.32;100.00
71768;BME280;59604;52.138;5.446;2023-02-02T02:49:45;102249.75;;;6.31;100.00
71768;BME280;59604;52.138;5.446;2023-02-02T02:52:12;102247.22;;;6.29;100.00
71768;BME280;59604;52.138;5.446;2023-02-02T02:54:53;102247.22;;;6.29;100.00
71768;BME280;59604;52.138;5.446;2023-02-02T03:03:07;102246.97;;;6.33;100.00
71768;BME280;59604;52.138;5.446;2023-02-02T03:08:38;102246.63;;;6.37;100.00
71768;BME280;59604;52.138;5.446;2023-02-02T03:11:07;102262.06;;;6.40;100.00
71768;BME280;59604;52.138;5.446;2023-02-02T03:13:36;102255.06;;;6.41;100.00
71768;BME280;59604;52.138;5.446;2023-02-02T03:16:02;102261.00;;;6.43;100.00
71768;BME280;59604;52.138;5.446;2023-02-02T03:18:30;102260.88;;;6.44;100.00
71768;BME280;59604;52.138;5.446;2023-02-02T03:20:58;102259.91;;;6.45;100.00
71768;BME280;59604;52.138;5.446;2023-02-02T03:23:25;102269.28;;;6.48;100.00
71768;BME280;59604;52.138;5.446;2023-02-02T03:25:53;102281.44;;;6.49;100.00
71768;BME280;59604;52.138;5.446;2023-02-02T03:28:20;102283.66;;;6.53;100.00
71768;BME280;59604;52.138;5.446;2023-02-02T03:30:49;102283.66;;;6.53;100.00
71768;BME280;59604;52.138;5.446;2023-02-02T03:33:16;102272.13;;;6.56;100.00
71768;BME280;59604;52.138;5.446;2023-02-02T03:35:44;102276.25;;;6.59;100.00
71768;BME280;59604;52.138;5.446;2023-02-02T03:38:10;102287.59;;;6.59;100.00
71768;BME280;59604;52.138;5.446;2023-02-02T03:40:39;102274.34;;;6.61;100.00
71768;BME280;59604;52.138;5.446;2023-02-02T03:43:06;102276.97;;;6.61;100.00
71768;BME280;59604;52.138;5.446;2023-02-02T03:45:33;102269.81;;;6.63;100.00
71768;BME280;59604;52.138;5.446;2023-02-02T03:48:03;102276.72;;;6.64;100.00
71768;BME280;59604;52.138;5.446;2023-02-02T03:50:31;102271.50;;;6.64;100.00
71768;BME280;59604;52.138;5.446;2023-02-02T03:52:57;102276.59;;;6.65;100.00
71768;BME280;59604;52.138;5.446;2023-02-02T03:55:24;102273.72;;;6.68;100.00
71768;BME280;59604;52.138;5.446;2023-02-02T03:57:51;102277.31;;;6.67;100.00
71768;BME280;59604;52.138;5.446;2023-02-02T04:00:18;102274.31;;;6.72;100.00
71768;BME280;59604;52.138;5.446;2023-02-02T04:02:44;102263.97;;;6.70;100.00
71768;BME280;59604;52.138;5.446;2023-02-02T04:05:11;102267.41;;;6.71;100.00
71768;BME280;59604;52.138;5.446;2023-02-02T04:07:38;102262.88;;;6.73;100.00
71768;BME280;59604;52.138;5.446;2023-02-02T04:10:04;102260.38;;;6.71;100.00
71768;BME280;59604;52.138;5.446;2023-02-02T04:12:31;102264.78;;;6.71;100.00
71768;BME280;59604;52.138;5.446;2023-02-02T04:14:58;102264.66;;;6.72;100.00
71768;BME280;59604;52.138;5.446;2023-02-02T04:17:24;102267.41;;;6.71;100.00
71768;BME280;59604;52.138;5.446;2023-02-02T04:19:51;102263.69;;;6.73;100.00
71768;BME280;59604;52.138;5.446;2023-02-02T04:22:24;102254.91;;;6.74;100.00
71768;BME280;59604;52.138;5.446;2023-02-02T04:24:51;102245.25;;;6.75;100.00
71768;BME280;59604;52.138;5.446;2023-02-02T04:27:18;102249.66;;;6.74;100.00
71768;BME280;59604;52.138;5.446;2023-02-02T04:29:44;102244.44;;;6.74;100.00
71768;BME280;59604;52.138;5.446;2023-02-02T04:32:13;102244.44;;;6.74;100.00
71768;BME280;59604;52.138;5.446;2023-02-02T04:34:41;102256.69;;;6.74;100.00
71768;BME280;59604;52.138;5.446;2023-02-02T04:37:08;102274.75;;;6.77;100.00
71768;BME280;59604;52.138;5.446;2023-02-02T04:39:35;102280.56;;;6.81;100.00
71768;BME280;59604;52.138;5.446;2023-02-02T04:42:02;102261.16;;;6.83;100.00
71768;BME280;59604;52.138;5.446;2023-02-02T04:44:29;102275.63;;;6.87;100.00
71768;BME280;59604;52.138;5.446;2023-02-02T04:46:55;102275.63;;;6.87;100.00
71768;BME280;59604;52.138;5.446;2023-02-02T04:49:23;102272.91;;;6.89;100.00
71768;BME280;59604;52.138;5.446;2023-02-02T04:51:50;102278.84;;;6.91;100.00
71768;BME280;59604;52.138;5.446;2023-02-02T04:54:16;102283.81;;;6.94;100.00
71768;BME280;59604;52.138;5.446;2023-02-02T04:56:43;102294.16;;;6.95;100.00
71768;BME280;59604;52.138;5.446;2023-02-02T04:59:10;102287.69;;;6.99;100.00
71768;BME280;59604;52.138;5.446;2023-02-02T05:01:36;102266.63;;;7.01;100.00
71768;BME280;59604;52.138;5.446;2023-02-02T05:04:03;102282.34;;;7.01;100.00
71768;BME280;59604;52.138;5.446;2023-02-02T05:06:30;102280.69;;;7.00;100.00
71768;BME280;59604;52.138;5.446;2023-02-02T05:08:56;102291.03;;;7.01;100.00
71768;BME280;59604;52.138;5.446;2023-02-02T05:11:23;102301.66;;;7.00;100.00
71768;BME280;59604;52.138;5.446;2023-02-02T05:13:53;102291.03;;;7.01;100.00
71768;BME280;59604;52.138;5.446;2023-02-02T05:16:21;102299.72;;;7.02;100.00
71768;BME280;59604;52.138;5.446;2023-02-02T05:18:50;102304.00;;;7.03;100.00
71768;BME280;59604;52.138;5.446;2023-02-02T05:21:17;102301.38;;;7.03;100.00
71768;BME280;59604;52.138;5.446;2023-02-02T05:23:44;102281.38;;;7.02;100.00
71768;BME280;59604;52.138;5.446;2023-02-02T05:26:17;102278.09;;;7.00;100.00
71768;BME280;59604;52.138;5.446;2023-02-02T05:28:44;102283.31;;;7.00;100.00
71768;BME280;59604;52.138;5.446;2023-02-02T05:31:11;102295.56;;;6.99;100.00
71768;BME280;59604;52.138;5.446;2023-02-02T05:33:38;102288.41;;;7.01;100.00
71768;BME280;59604;52.138;5.446;2023-02-02T05:36:07;102292.00;;;7.00;100.00
71768;BME280;59604;52.138;5.446;2023-02-02T05:38:33;102296.28;;;7.01;100.00
71768;BME280;59604;52.138;5.446;2023-02-02T05:41:00;102292.84;;;7.01;100.00
71768;BME280;59604;52.138;5.446;2023-02-02T05:43:29;102292.84;;;7.01;100.00
71768;BME280;59604;52.138;5.446;2023-02-02T05:45:55;102298.91;;;7.01;100.00
71768;BME280;59604;52.138;5.446;2023-02-02T05:48:24;102297.81;;;7.04;100.00
71768;BME280;59604;52.138;5.446;2023-02-02T05:51:14;102288.28;;;7.03;100.00
71768;BME280;59604;52.138;5.446;2023-02-02T05:53:42;102299.63;;;7.04;100.00
71768;BME280;59604;52.138;5.446;2023-02-02T05:56:11;102304.13;;;7.01;100.00
71768;BME280;59604;52.138;5.446;2023-02-02T05:58:38;102294.47;;;7.02;100.00
71768;BME280;59604;52.138;5.446;2023-02-02T06:01:05;102303.16;;;7.02;100.00
71768;BME280;59604;52.138;5.446;2023-02-02T06:03:31;102303.31;;;7.01;100.00
71768;BME280;59604;52.138;5.446;2023-02-02T06:05:58;102302.59;;;6.99;100.00
71768;BME280;59604;52.138;5.446;2023-02-02T06:08:25;102303.56;;;6.98;100.00
71768;BME280;59604;52.138;5.446;2023-02-02T06:10:51;102304.53;;;6.97;100.00
71768;BME280;59604;52.138;5.446;2023-02-02T06:13:18;102309.63;;;6.98;100.00
71768;BME280;59604;52.138;5.446;2023-02-02T06:15:44;102301.91;;;6.97;100.00
71768;BME280;59604;52.138;5.446;2023-02-02T06:18:11;102310.84;;;6.94;100.00
71768;BME280;59604;52.138;5.446;2023-02-02T06:20:38;102302.03;;;6.95;100.00
71768;BME280;59604;52.138;5.446;2023-02-02T06:23:05;102312.63;;;6.94;100.00
71768;BME280;59604;52.138;5.446;2023-02-02T06:25:32;102318.84;;;6.93;100.00
71768;BME280;59604;52.138;5.446;2023-02-02T06:28:00;102310.97;;;6.93;100.00
71768;BME280;59604;52.138;5.446;2023-02-02T06:30:26;102309.31;;;6.92;100.00
71768;BME280;59604;52.138;5.446;2023-02-02T06:32:53;102315.50;;;6.91;100.00
71768;BME280;59604;52.138;5.446;2023-02-02T06:35:21;102322.69;;;6.89;100.00
71768;BME280;59604;52.138;5.446;2023-02-02T06:37:48;102327.91;;;6.89;100.00
71768;BME280;59604;52.138;5.446;2023-02-02T06:40:15;102333.25;;;6.87;100.00
71768;BME280;59604;52.138;5.446;2023-02-02T06:42:42;102332.44;;;6.87;100.00
71768;BME280;59604;52.138;5.446;2023-02-02T06:45:09;102341.13;;;6.87;100.00
71768;BME280;59604;52.138;5.446;2023-02-02T06:47:36;102345.53;;;6.87;100.00
71768;BME280;59604;52.138;5.446;2023-02-02T06:50:03;102339.47;;;6.86;100.00
71768;BME280;59604;52.138;5.446;2023-02-02T06:52:30;102344.72;;;6.86;100.00
71768;BME280;59604;52.138;5.446;2023-02-02T06:54:56;102351.59;;;6.87;100.00
71768;BME280;59604;52.138;5.446;2023-02-02T06:57:23;102346.38;;;6.87;100.00
71768;BME280;59604;52.138;5.446;2023-02-02T06:59:49;102359.59;;;6.86;100.00
71768;BME280;59604;52.138;5.446;2023-02-02T07:02:17;102354.34;;;6.86;100.00
71768;BME280;59604;52.138;5.446;2023-02-02T07:04:44;102350.91;;;6.85;100.00
71768;BME280;59604;52.138;5.446;2023-02-02T07:07:11;102345.66;;;6.85;100.00
71768;BME280;59604;52.138;5.446;2023-02-02T07:09:37;102346.50;;;6.86;100.00
71768;BME280;59604;52.138;5.446;2023-02-02T07:12:04;102343.06;;;6.85;100.00
71768;BME280;59604;52.138;5.446;2023-02-02T07:14:31;102344.00;;;6.84;100.00
71768;BME280;59604;52.138;5.446;2023-02-02T07:16:58;102338.63;;;6.86;100.00
71768;BME280;59604;52.138;5.446;2023-02-02T07:19:25;102339.47;;;6.86;100.00
71768;BME280;59604;52.138;5.446;2023-02-02T07:21:51;102349.22;;;6.84;100.00
71768;BME280;59604;52.138;5.446;2023-02-02T07:24:18;102350.06;;;6.85;100.00
71768;BME280;59604;52.138;5.446;2023-02-02T07:26:44;102348.28;;;6.85;100.00
71768;BME280;59604;52.138;5.446;2023-02-02T07:29:12;102352.66;;;6.85;100.00
71768;BME280;59604;52.138;5.446;2023-02-02T07:31:39;102359.69;;;6.84;100.00
71768;BME280;59604;52.138;5.446;2023-02-02T07:34:06;102359.69;;;6.84;100.00
71768;BME280;59604;52.138;5.446;2023-02-02T07:36:34;102358.88;;;6.84;100.00
71768;BME280;59604;52.138;5.446;2023-02-02T07:39:01;102369.25;;;6.85;100.00
71768;BME280;59604;52.138;5.446;2023-02-02T07:41:33;102367.44;;;6.86;100.00
71768;BME280;59604;52.138;5.446;2023-02-02T07:44:00;102374.47;;;6.85;100.00
71768;BME280;59604;52.138;5.446;2023-02-02T07:46:27;102382.19;;;6.87;100.00
71768;BME280;59604;52.138;5.446;2023-02-02T07:48:54;102372.56;;;6.87;100.00
71768;BME280;59604;52.138;5.446;2023-02-02T07:51:22;102381.13;;;6.89;100.00
71768;BME280;59604;52.138;5.446;2023-02-02T07:53:52;102387.31;;;6.88;100.00
71768;BME280;59604;52.138;5.446;2023-02-02T07:56:21;102387.19;;;6.90;100.00
71768;BME280;59604;52.138;5.446;2023-02-02T07:58:51;102391.34;;;6.92;100.00
71768;BME280;59604;52.138;5.446;2023-02-02T08:01:18;102396.47;;;6.94;100.00
71768;BME280;59604;52.138;5.446;2023-02-02T08:03:49;102386.69;;;6.96;100.00
71768;BME280;59604;52.138;5.446;2023-02-02T08:06:17;102386.69;;;6.96;100.00
71768;BME280;59604;52.138;5.446;2023-02-02T08:08:44;102395.25;;;6.98;100.00
71768;BME280;59604;52.138;5.446;2023-02-02T08:11:12;102401.22;;;7.00;100.00
71768;BME280;59604;52.138;5.446;2023-02-02T08:13:40;102396.56;;;7.04;100.00
71768;BME280;59604;52.138;5.446;2023-02-02T08:16:07;102401.41;;;7.08;100.00
71768;BME280;59604;52.138;5.446;2023-02-02T08:18:35;102412.56;;;7.10;100.00
71768;BME280;59604;52.138;5.446;2023-02-02T08:21:03;102411.50;;;7.13;100.00
71768;BME280;59604;52.138;5.446;2023-02-02T08:23:30;102410.66;;;7.12;100.00
71768;BME280;59604;52.138;5.446;2023-02-02T08:26:18;102424.59;;;7.13;100.00
71768;BME280;59604;52.138;5.446;2023-02-02T08:28:48;102424.75;;;7.11;100.00
71768;BME280;59604;52.138;5.446;2023-02-02T08:31:21;102421.16;;;7.12;100.00
71768;BME280;59604;52.138;5.446;2023-02-02T08:33:49;102426.00;;;7.17;100.00
71768;BME280;59604;52.138;5.446;2023-02-02T08:36:18;102432.06;;;7.17;100.00
71768;BME280;59604;52.138;5.446;2023-02-02T08:38:46;102432.78;;;7.19;100.00
71768;BME280;59604;52.138;5.446;2023-02-02T08:41:15;102434.19;;;7.23;100.00
71768;BME280;59604;52.138;5.446;2023-02-02T08:43:42;102444.53;;;7.25;100.00
71768;BME280;59604;52.138;5.446;2023-02-02T08:46:11;102445.84;;;7.31;100.00
71768;BME280;59604;52.138;5.446;2023-02-02T08:48:39;102449.50;;;7.39;100.00
71768;BME280;59604;52.138;5.446;2023-02-02T08:51:09;102449.94;;;7.44;100.00
71768;BME280;59604;52.138;5.446;2023-02-02T08:53:36;102449.00;;;7.45;100.00
71768;BME280;59604;52.138;5.446;2023-02-02T08:56:08;102459.22;;;7.48;100.00
71768;BME280;59604;52.138;5.446;2023-02-02T08:58:35;102458.00;;;7.53;100.00
71768;BME280;59604;52.138;5.446;2023-02-02T09:01:07;102460.13;;;7.59;100.00
71768;BME280;59604;52.138;5.446;2023-02-02T09:03:34;102444.69;;;7.65;100.00
71768;BME280;59604;52.138;5.446;2023-02-02T09:06:05;102450.50;;;7.69;100.00
71768;BME280;59604;52.138;5.446;2023-02-02T09:08:32;102458.13;;;7.72;100.00
71768;BME280;59604;52.138;5.446;2023-02-02T09:11:08;102460.63;;;7.73;100.00
71768;BME280;59604;52.138;5.446;2023-02-02T09:13:45;102463.84;;;7.77;100.00
71768;BME280;59604;52.138;5.446;2023-02-02T09:16:14;102468.53;;;7.83;100.00
71768;BME280;59604;52.138;5.446;2023-02-02T09:18:42;102475.91;;;7.89;100.00
71768;BME280;59604;52.138;5.446;2023-02-02T09:21:13;102475.66;;;7.92;100.00
71768;BME280;59604;52.138;5.446;2023-02-02T09:23:41;102487.28;;;7.99;100.00
71768;BME280;59604;52.138;5.446;2023-02-02T09:28:37;102484.94;;;8.06;100.00
71768;BME280;59604;52.138;5.446;2023-02-02T09:31:05;102491.75;;;8.09;99.78
71768;BME280;59604;52.138;5.446;2023-02-02T09:33:32;102496.31;;;8.07;99.95
71768;BME280;59604;52.138;5.446;2023-02-02T09:36:09;102497.81;;;8.09;100.00
71768;BME280;59604;52.138;5.446;2023-02-02T09:38:38;102503.06;;;8.09;99.92
71768;BME280;59604;52.138;5.446;2023-02-02T09:49:22;102500.69;;;8.06;99.11
71768;BME280;59604;52.138;5.446;2023-02-02T09:51:58;102503.31;;;8.06;99.31
71768;BME280;59604;52.138;5.446;2023-02-02T09:54:34;102510.13;;;8.09;99.52
71768;BME280;59604;52.138;5.446;2023-02-02T09:57:18;102505.56;;;8.11;99.31
71768;BME280;59604;52.138;5.446;2023-02-02T09:59:50;102518.25;;;8.06;99.14
71768;BME280;59604;52.138;5.446;2023-02-02T10:02:21;102514.94;;;8.04;99.46
71768;BME280;59604;52.138;5.446;2023-02-02T10:04:54;102518.13;;;8.07;99.61
71768;BME280;59604;52.138;5.446;2023-02-02T10:07:41;102515.25;;;8.10;99.54
71768;BME280;59604;52.138;5.446;2023-02-02T10:10:13;102526.19;;;8.15;99.42
71768;BME280;59604;52.138;5.446;2023-02-02T10:12:58;102525.91;;;8.18;99.12
71768;BME280;59604;52.138;5.446;2023-02-02T10:15:34;102523.72;;;8.23;99.21
71768;BME280;59604;52.138;5.446;2023-02-02T10:20:58;102543.00;;;8.13;98.71
71768;BME280;59604;52.138;5.446;2023-02-02T10:23:43;102545.63;;;8.13;98.77
71768;BME280;59604;52.138;5.446;2023-02-02T10:34:26;102542.16;;;8.33;99.09
71768;BME280;59604;52.138;5.446;2023-02-02T10:37:18;102550.38;;;8.40;98.68
71768;BME280;59604;52.138;5.446;2023-02-02T10:40:09;102553.84;;;8.40;98.18
71768;BME280;59604;52.138;5.446;2023-02-02T10:46:00;102552.59;;;8.44;98.63
71768;BME280;59604;52.138;5.446;2023-02-02T10:48:32;102554.81;;;8.49;98.80
71768;BME280;59604;52.138;5.446;2023-02-02T10:51:10;102549.16;;;8.54;98.44
71768;BME280;59604;52.138;5.446;2023-02-02T10:53:42;102556.38;;;8.52;98.42
71768;BME280;59604;52.138;5.446;2023-02-02T10:56:12;102559.97;;;8.51;98.35
71768;BME280;59604;52.138;5.446;2023-02-02T11:01:27;102556.38;;;8.61;98.61
71768;BME280;59604;52.138;5.446;2023-02-02T11:03:54;102549.78;;;8.67;98.43
71768;BME280;59604;52.138;5.446;2023-02-02T11:06:40;102555.56;;;8.61;98.19
71768;BME280;59604;52.138;5.446;2023-02-02T11:09:36;102570.19;;;8.54;98.29
71768;BME280;59604;52.138;5.446;2023-02-02T11:12:30;102563.13;;;8.54;97.92
71768;BME280;59604;52.138;5.446;2023-02-02T11:14:59;102546.44;;;8.55;98.05
71768;BME280;59604;52.138;5.446;2023-02-02T11:17:27;102554.75;;;8.60;98.32
71768;BME280;59604;52.138;5.446;2023-02-02T11:19:54;102557.38;;;8.60;97.74
71768;BME280;59604;52.138;5.446;2023-02-02T11:22:38;102550.72;;;8.56;97.19
71768;BME280;59604;52.138;5.446;2023-02-02T11:25:36;102553.19;;;8.58;97.21
71768;BME280;59604;52.138;5.446;2023-02-02T11:28:18;102554.75;;;8.60;96.91
71768;BME280;59604;52.138;5.446;2023-02-02T11:30:47;102553.25;;;8.67;97.17
71768;BME280;59604;52.138;5.446;2023-02-02T11:33:31;102552.47;;;8.77;96.80
71768;BME280;59604;52.138;5.446;2023-02-02T11:36:04;102552.63;;;8.85;96.55
71768;BME280;59604;52.138;5.446;2023-02-02T11:38:31;102554.28;;;8.86;96.07
71768;BME280;59604;52.138;5.446;2023-02-02T11:41:03;102551.34;;;8.79;95.32
71768;BME280;59604;52.138;5.446;2023-02-02T11:43:46;102564.88;;;8.75;95.90
71768;BME280;59604;52.138;5.446;2023-02-02T11:46:18;102557.25;;;8.71;95.53
71768;BME280;59604;52.138;5.446;2023-02-02T11:51:24;102552.84;;;8.72;95.32
71768;BME280;59604;52.138;5.446;2023-02-02T11:54:36;102553.66;;;8.73;95.11
71768;BME280;59604;52.138;5.446;2023-02-02T11:57:09;102550.09;;;8.74;95.21
71768;BME280;59604;52.138;5.446;2023-02-02T11:59:39;102553.81;;;8.71;94.59
71768;BME280;59604;52.138;5.446;2023-02-02T12:04:46;102546.44;;;8.65;94.59
71768;BME280;59604;52.138;5.446;2023-02-02T12:07:27;102548.25;;;8.64;94.62
71768;BME280;59604;52.138;5.446;2023-02-02T12:10:27;102552.81;;;8.62;94.62
71768;BME280;59604;52.138;5.446;2023-02-02T12:14:08;102549.47;;;8.60;94.53
71768;BME280;59604;52.138;5.446;2023-02-02T12:27:51;102536.44;;;8.49;95.28
71768;BME280;59604;52.138;5.446;2023-02-02T12:33:21;102538.38;;;8.47;95.22
71768;BME280;59604;52.138;5.446;2023-02-02T12:46:55;102536.03;;;8.44;95.97
71768;BME280;59604;52.138;5.446;2023-02-02T12:57:40;102529.78;;;8.45;95.84
71768;BME280;59604;52.138;5.446;2023-02-02T13:08:57;102522.94;;;8.33;97.23
71768;BME280;59604;52.138;5.446;2023-02-02T13:11:47;102527.75;;;8.28;97.32
71768;BME280;59604;52.138;5.446;2023-02-02T13:14:25;102526.91;;;8.27;97.97
71768;BME280;59604;52.138;5.446;2023-02-02T13:20:40;102534.47;;;8.20;99.62
71768;BME280;59604;52.138;5.446;2023-02-02T13:24:14;102526.75;;;8.19;100.00
71768;BME280;59604;52.138;5.446;2023-02-02T13:27:14;102532.56;;;8.22;100.00
71768;BME280;59604;52.138;5.446;2023-02-02T13:32:33;102540.28;;;8.14;100.00
71768;BME280;59604;52.138;5.446;2023-02-02T13:35:33;102546.47;;;8.13;100.00
71768;BME280;59604;52.138;5.446;2023-02-02T13:39:02;102548.41;;;8.11;100.00
71768;BME280;59604;52.138;5.446;2023-02-02T13:41:36;102546.47;;;8.13;100.00
71768;BME280;59604;52.138;5.446;2023-02-02T13:44:34;102546.59;;;8.12;100.00
71768;BME280;59604;52.138;5.446;2023-02-02T13:47:10;102542.19;;;8.12;100.00
71768;BME280;59604;52.138;5.446;2023-02-02T13:49:50;102552.81;;;8.11;100.00
71768;BME280;59604;52.138;5.446;2023-02-02T14:00:58;102543.31;;;8.19;100.00
71768;BME280;59604;52.138;5.446;2023-02-02T14:11:39;102542.34;;;8.20;100.00
71768;BME280;59604;52.138;5.446;2023-02-02T14:15:15;102543.19;;;8.21;100.00
71768;BME280;59604;52.138;5.446;2023-02-02T14:20:39;102551.91;;;8.21;100.00
71768;BME280;59604;52.138;5.446;2023-02-02T14:26:38;102554.78;;;8.18;100.00
71768;BME280;59604;52.138;5.446;2023-02-02T14:43:51;102560.94;;;8.08;100.00
71768;BME280;59604;52.138;5.446;2023-02-02T14:46:34;102573.50;;;8.04;100.00
71768;BME280;59604;52.138;5.446;2023-02-02T14:51:30;102569.47;;;8.00;100.00
71768;BME280;59604;52.138;5.446;2023-02-02T14:54:00;102577.44;;;7.98;100.00
71768;BME280;59604;52.138;5.446;2023-02-02T14:56:38;102578.41;;;7.97;100.00
71768;BME280;59604;52.138;5.446;2023-02-02T14:59:05;102586.44;;;7.96;100.00
71768;BME280;59604;52.138;5.446;2023-02-02T15:01:39;102577.00;;;7.93;100.00
71768;BME280;59604;52.138;5.446;2023-02-02T15:06:47;102588.56;;;7.91;100.00
71768;BME280;59604;52.138;5.446;2023-02-02T15:17:21;102595.63;;;7.90;100.00
71768;BME280;59604;52.138;5.446;2023-02-02T15:20:12;102584.31;;;7.90;100.00
71768;BME280;59604;52.138;5.446;2023-02-02T15:25:19;102594.78;;;7.90;100.00
71768;BME280;59604;52.138;5.446;2023-02-02T15:28:16;102599.31;;;7.88;100.00
71768;BME280;59604;52.138;5.446;2023-02-02T15:30:49;102598.50;;;7.87;100.00
71768;BME280;59604;52.138;5.446;2023-02-02T15:33:40;102597.66;;;7.87;100.00
71768;BME280;59604;52.138;5.446;2023-02-02T15:36:20;102583.84;;;7.85;100.00
71768;BME280;59604;52.138;5.446;2023-02-02T15:38:52;102594.22;;;7.86;100.00
71768;BME280;59604;52.138;5.446;2023-02-02T15:43:46;102596.69;;;7.88;100.00
71768;BME280;59604;52.138;5.446;2023-02-02T15:46:15;102601.84;;;7.89;100.00
71768;BME280;59604;52.138;5.446;2023-02-02T15:52:02;102591.19;;;7.91;100.00
71768;BME280;59604;52.138;5.446;2023-02-02T15:54:31;102591.19;;;7.91;100.00
71768;BME280;59604;52.138;5.446;2023-02-02T15:57:01;102589.28;;;7.93;100.00
71768;BME280;59604;52.138;5.446;2023-02-02T15:59:29;102597.03;;;7.94;100.00
71768;BME280;59604;52.138;5.446;2023-02-02T16:04:35;102595.38;;;7.93;100.00
71768;BME280;59604;52.138;5.446;2023-02-02T16:07:04;102589.41;;;7.91;100.00
71768;BME280;59604;52.138;5.446;2023-02-02T16:09:33;102599.06;;;7.91;100.00